sensor_id;sensor_type;location;lat;lon;timestamp;P1;durP1;ratioP1;P2;durP2;ratioP2
787;SDS011;16074;42.708;23.312;2022-09-09T00:01:44;16.43;;;15.10;;
787;SDS011;16074;42.708;23.312;2022-09-09T00:04:19;13.70;;;12.70;;
787;SDS011;16074;42.708;23.312;2022-09-09T00:06:56;14.13;;;13.13;;
787;SDS011;16074;42.708;23.312;2022-09-09T00:09:31;16.17;;;14.70;;
787;SDS011;16074;42.708;23.312;2022-09-09T00:12:10;14.27;;;13.27;;
787;SDS011;16074;42.708;23.312;2022-09-09T00:14:42;15.23;;;14.03;;
787;SDS011;16074;42.708;23.312;2022-09-09T00:17:20;16.33;;;14.70;;
787;SDS011;16074;42.708;23.312;2022-09-09T00:20:10;15.50;;;14.37;;
787;SDS011;16074;42.708;23.312;2022-09-09T00:22:44;17.13;;;15.73;;
787;SDS011;16074;42.708;23.312;2022-09-09T00:25:18;16.10;;;14.80;;
787;SDS011;16074;42.708;23.312;2022-09-09T00:27:54;16.43;;;15.13;;
787;SDS011;16074;42.708;23.312;2022-09-09T00:30:23;14.77;;;13.67;;
787;SDS011;16074;42.708;23.312;2022-09-09T00:32:53;15.80;;;14.63;;
787;SDS011;16074;42.708;23.312;2022-09-09T00:35:25;18.30;;;16.80;;
787;SDS011;16074;42.708;23.312;2022-09-09T00:38:00;17.73;;;16.43;;
787;SDS011;16074;42.708;23.312;2022-09-09T00:40:37;16.30;;;14.93;;
787;SDS011;16074;42.708;23.312;2022-09-09T00:43:24;16.73;;;15.43;;
787;SDS011;16074;42.708;23.312;2022-09-09T00:46:10;16.83;;;15.00;;
787;SDS011;16074;42.708;23.312;2022-09-09T00:48:52;17.00;;;15.60;;
787;SDS011;16074;42.708;23.312;2022-09-09T00:51:29;16.40;;;14.90;;
787;SDS011;16074;42.708;23.312;2022-09-09T00:54:16;16.60;;;15.30;;
787;SDS011;16074;42.708;23.312;2022-09-09T00:57:03;16.77;;;15.17;;
787;SDS011;16074;42.708;23.312;2022-09-09T00:59:43;16.77;;;15.07;;
787;SDS011;16074;42.708;23.312;2022-09-09T01:02:17;16.90;;;15.50;;
787;SDS011;16074;42.708;23.312;2022-09-09T01:04:54;16.37;;;15.20;;
787;SDS011;16074;42.708;23.312;2022-09-09T01:07:28;16.63;;;15.27;;
787;SDS011;16074;42.708;23.312;2022-09-09T01:09:57;23.10;;;15.37;;
787;SDS011;16074;42.708;23.312;2022-09-09T01:12:30;16.57;;;15.30;;
787;SDS011;16074;42.708;23.312;2022-09-09T01:15:08;18.50;;;17.00;;
787;SDS011;16074;42.708;23.312;2022-09-09T01:17:52;16.30;;;15.10;;
787;SDS011;16074;42.708;23.312;2022-09-09T01:20:26;16.30;;;15.17;;
787;SDS011;16074;42.708;23.312;2022-09-09T01:23:08;16.80;;;15.50;;
787;SDS011;16074;42.708;23.312;2022-09-09T01:26:13;16.53;;;15.13;;
787;SDS011;16074;42.708;23.312;2022-09-09T01:28:46;17.33;;;16.03;;
787;SDS011;16074;42.708;23.312;2022-09-09T01:31:17;17.87;;;16.47;;
787;SDS011;16074;42.708;23.312;2022-09-09T01:33:48;17.97;;;16.53;;
787;SDS011;16074;42.708;23.312;2022-09-09T01:36:21;18.30;;;16.60;;
787;SDS011;16074;42.708;23.312;2022-09-09T01:38:57;17.90;;;16.37;;
787;SDS011;16074;42.708;23.312;2022-09-09T01:41:27;18.30;;;16.80;;
787;SDS011;16074;42.708;23.312;2022-09-09T01:44:02;17.90;;;16.47;;
787;SDS011;16074;42.708;23.312;2022-09-09T01:46:33;17.43;;;16.13;;
787;SDS011;16074;42.708;23.312;2022-09-09T01:49:03;18.50;;;17.00;;
787;SDS011;16074;42.708;23.312;2022-09-09T01:51:35;18.37;;;16.87;;
787;SDS011;16074;42.708;23.312;2022-09-09T01:54:07;19.73;;;17.93;;
787;SDS011;16074;42.708;23.312;2022-09-09T01:56:40;19.80;;;18.30;;
787;SDS011;16074;42.708;23.312;2022-09-09T01:59:19;20.17;;;18.37;;
787;SDS011;16074;42.708;23.312;2022-09-09T02:02:08;19.20;;;17.70;;
787;SDS011;16074;42.708;23.312;2022-09-09T02:04:45;18.60;;;17.20;;
787;SDS011;16074;42.708;23.312;2022-09-09T02:07:25;20.27;;;18.67;;
787;SDS011;16074;42.708;23.312;2022-09-09T02:10:05;20.30;;;18.50;;
787;SDS011;16074;42.708;23.312;2022-09-09T02:12:45;21.20;;;19.50;;
787;SDS011;16074;42.708;23.312;2022-09-09T02:15:17;20.37;;;18.70;;
787;SDS011;16074;42.708;23.312;2022-09-09T02:17:50;20.10;;;18.50;;
787;SDS011;16074;42.708;23.312;2022-09-09T02:20:20;20.87;;;18.77;;
787;SDS011;16074;42.708;23.312;2022-09-09T02:22:56;19.93;;;18.43;;
787;SDS011;16074;42.708;23.312;2022-09-09T02:25:26;19.63;;;17.83;;
787;SDS011;16074;42.708;23.312;2022-09-09T02:28:07;21.20;;;19.40;;
787;SDS011;16074;42.708;23.312;2022-09-09T02:30:37;21.30;;;19.50;;
787;SDS011;16074;42.708;23.312;2022-09-09T02:33:07;20.83;;;19.10;;
787;SDS011;16074;42.708;23.312;2022-09-09T02:35:48;20.90;;;19.00;;
787;SDS011;16074;42.708;23.312;2022-09-09T02:38:22;20.93;;;19.13;;
787;SDS011;16074;42.708;23.312;2022-09-09T02:41:02;21.77;;;19.87;;
787;SDS011;16074;42.708;23.312;2022-09-09T02:43:32;20.93;;;19.23;;
787;SDS011;16074;42.708;23.312;2022-09-09T02:46:08;20.50;;;18.60;;
787;SDS011;16074;42.708;23.312;2022-09-09T02:48:47;19.43;;;17.90;;
787;SDS011;16074;42.708;23.312;2022-09-09T02:51:26;19.33;;;17.73;;
787;SDS011;16074;42.708;23.312;2022-09-09T02:54:04;20.83;;;19.03;;
787;SDS011;16074;42.708;23.312;2022-09-09T02:56:40;20.50;;;18.80;;
787;SDS011;16074;42.708;23.312;2022-09-09T02:59:15;19.97;;;18.37;;
787;SDS011;16074;42.708;23.312;2022-09-09T03:01:45;21.03;;;19.33;;
787;SDS011;16074;42.708;23.312;2022-09-09T03:04:13;20.43;;;18.40;;
787;SDS011;16074;42.708;23.312;2022-09-09T03:06:42;20.87;;;19.10;;
787;SDS011;16074;42.708;23.312;2022-09-09T03:09:17;19.57;;;17.97;;
787;SDS011;16074;42.708;23.312;2022-09-09T03:11:45;20.57;;;18.90;;
787;SDS011;16074;42.708;23.312;2022-09-09T03:14:16;20.87;;;19.10;;
787;SDS011;16074;42.708;23.312;2022-09-09T03:16:47;20.27;;;17.83;;
787;SDS011;16074;42.708;23.312;2022-09-09T03:19:16;20.10;;;18.40;;
787;SDS011;16074;42.708;23.312;2022-09-09T03:21:45;19.80;;;18.10;;
787;SDS011;16074;42.708;23.312;2022-09-09T03:24:13;20.23;;;18.63;;
787;SDS011;16074;42.708;23.312;2022-09-09T03:26:42;20.33;;;18.73;;
787;SDS011;16074;42.708;23.312;2022-09-09T03:29:16;20.40;;;18.53;;
787;SDS011;16074;42.708;23.312;2022-09-09T03:31:45;21.17;;;19.27;;
787;SDS011;16074;42.708;23.312;2022-09-09T03:34:13;21.13;;;19.43;;
787;SDS011;16074;42.708;23.312;2022-09-09T03:36:42;21.07;;;19.47;;
787;SDS011;16074;42.708;23.312;2022-09-09T03:39:10;21.03;;;19.27;;
787;SDS011;16074;42.708;23.312;2022-09-09T03:41:40;21.03;;;19.03;;
787;SDS011;16074;42.708;23.312;2022-09-09T03:44:11;21.47;;;19.43;;
787;SDS011;16074;42.708;23.312;2022-09-09T03:46:42;22.00;;;20.10;;
787;SDS011;16074;42.708;23.312;2022-09-09T03:49:10;23.40;;;21.30;;
787;SDS011;16074;42.708;23.312;2022-09-09T03:51:38;22.30;;;20.17;;
787;SDS011;16074;42.708;23.312;2022-09-09T03:54:09;22.20;;;20.30;;
787;SDS011;16074;42.708;23.312;2022-09-09T03:56:37;22.47;;;20.47;;
787;SDS011;16074;42.708;23.312;2022-09-09T03:59:10;22.27;;;20.10;;
787;SDS011;16074;42.708;23.312;2022-09-09T04:01:38;21.70;;;19.70;;
787;SDS011;16074;42.708;23.312;2022-09-09T04:04:08;22.43;;;20.63;;
787;SDS011;16074;42.708;23.312;2022-09-09T04:06:36;23.50;;;21.20;;
787;SDS011;16074;42.708;23.312;2022-09-09T04:09:04;22.10;;;20.07;;
787;SDS011;16074;42.708;23.312;2022-09-09T04:11:33;22.03;;;20.33;;
787;SDS011;16074;42.708;23.312;2022-09-09T04:14:01;22.37;;;20.37;;
787;SDS011;16074;42.708;23.312;2022-09-09T04:16:30;22.27;;;20.30;;
787;SDS011;16074;42.708;23.312;2022-09-09T04:18:59;23.63;;;21.50;;
787;SDS011;16074;42.708;23.312;2022-09-09T04:21:29;23.37;;;21.33;;
787;SDS011;16074;42.708;23.312;2022-09-09T04:23:59;22.83;;;20.93;;
787;SDS011;16074;42.708;23.312;2022-09-09T04:26:27;23.83;;;21.70;;
787;SDS011;16074;42.708;23.312;2022-09-09T04:28:55;24.13;;;22.13;;
787;SDS011;16074;42.708;23.312;2022-09-09T04:31:23;24.20;;;21.80;;
787;SDS011;16074;42.708;23.312;2022-09-09T04:33:55;24.10;;;21.80;;
787;SDS011;16074;42.708;23.312;2022-09-09T04:36:24;24.63;;;22.33;;
787;SDS011;16074;42.708;23.312;2022-09-09T04:38:58;25.37;;;23.40;;
787;SDS011;16074;42.708;23.312;2022-09-09T04:41:27;23.30;;;21.40;;
787;SDS011;16074;42.708;23.312;2022-09-09T04:43:58;25.40;;;22.80;;
787;SDS011;16074;42.708;23.312;2022-09-09T04:46:27;22.50;;;20.50;;
787;SDS011;16074;42.708;23.312;2022-09-09T04:48:56;22.10;;;20.30;;
787;SDS011;16074;42.708;23.312;2022-09-09T04:51:28;23.30;;;21.33;;
787;SDS011;16074;42.708;23.312;2022-09-09T04:53:59;24.03;;;21.53;;
787;SDS011;16074;42.708;23.312;2022-09-09T04:56:27;22.83;;;20.90;;
787;SDS011;16074;42.708;23.312;2022-09-09T04:58:57;23.80;;;21.47;;
787;SDS011;16074;42.708;23.312;2022-09-09T05:01:35;24.17;;;21.90;;
787;SDS011;16074;42.708;23.312;2022-09-09T05:04:04;23.53;;;21.47;;
787;SDS011;16074;42.708;23.312;2022-09-09T05:06:33;23.83;;;21.43;;
787;SDS011;16074;42.708;23.312;2022-09-09T05:09:05;23.83;;;21.73;;
787;SDS011;16074;42.708;23.312;2022-09-09T05:11:33;24.47;;;21.80;;
787;SDS011;16074;42.708;23.312;2022-09-09T05:14:08;23.50;;;21.60;;
787;SDS011;16074;42.708;23.312;2022-09-09T05:16:38;23.97;;;21.83;;
787;SDS011;16074;42.708;23.312;2022-09-09T05:19:06;24.10;;;22.07;;
787;SDS011;16074;42.708;23.312;2022-09-09T05:21:42;25.43;;;22.87;;
787;SDS011;16074;42.708;23.312;2022-09-09T05:24:13;26.10;;;23.73;;
787;SDS011;16074;42.708;23.312;2022-09-09T05:26:41;25.37;;;22.77;;
787;SDS011;16074;42.708;23.312;2022-09-09T05:29:10;25.40;;;23.07;;
787;SDS011;16074;42.708;23.312;2022-09-09T05:31:38;24.97;;;22.03;;
787;SDS011;16074;42.708;23.312;2022-09-09T05:34:12;26.17;;;23.50;;
787;SDS011;16074;42.708;23.312;2022-09-09T05:36:40;26.63;;;22.20;;
787;SDS011;16074;42.708;23.312;2022-09-09T05:39:09;24.00;;;21.60;;
787;SDS011;16074;42.708;23.312;2022-09-09T05:41:40;24.90;;;22.43;;
787;SDS011;16074;42.708;23.312;2022-09-09T05:44:08;25.07;;;22.47;;
787;SDS011;16074;42.708;23.312;2022-09-09T05:46:38;25.47;;;22.97;;
787;SDS011;16074;42.708;23.312;2022-09-09T05:49:06;26.30;;;23.63;;
787;SDS011;16074;42.708;23.312;2022-09-09T05:51:35;25.33;;;23.13;;
787;SDS011;16074;42.708;23.312;2022-09-09T05:54:08;28.37;;;22.60;;
787;SDS011;16074;42.708;23.312;2022-09-09T05:56:42;24.23;;;21.93;;
787;SDS011;16074;42.708;23.312;2022-09-09T05:59:16;25.87;;;23.20;;
787;SDS011;16074;42.708;23.312;2022-09-09T06:01:44;22.90;;;20.77;;
787;SDS011;16074;42.708;23.312;2022-09-09T06:04:20;23.70;;;21.50;;
787;SDS011;16074;42.708;23.312;2022-09-09T06:06:50;23.90;;;21.67;;
787;SDS011;16074;42.708;23.312;2022-09-09T06:09:21;21.07;;;18.80;;
787;SDS011;16074;42.708;23.312;2022-09-09T06:11:50;20.73;;;18.83;;
787;SDS011;16074;42.708;23.312;2022-09-09T06:14:20;25.23;;;20.00;;
787;SDS011;16074;42.708;23.312;2022-09-09T06:16:51;25.07;;;21.50;;
787;SDS011;16074;42.708;23.312;2022-09-09T06:19:26;22.10;;;19.80;;
787;SDS011;16074;42.708;23.312;2022-09-09T06:21:56;20.30;;;18.23;;
787;SDS011;16074;42.708;23.312;2022-09-09T06:24:26;23.33;;;21.07;;
787;SDS011;16074;42.708;23.312;2022-09-09T06:26:58;22.37;;;20.33;;
787;SDS011;16074;42.708;23.312;2022-09-09T06:29:31;20.97;;;19.00;;
787;SDS011;16074;42.708;23.312;2022-09-09T06:31:59;20.93;;;18.93;;
787;SDS011;16074;42.708;23.312;2022-09-09T06:34:27;20.10;;;18.50;;
787;SDS011;16074;42.708;23.312;2022-09-09T06:36:57;19.13;;;17.37;;
787;SDS011;16074;42.708;23.312;2022-09-09T06:39:32;19.70;;;17.80;;
787;SDS011;16074;42.708;23.312;2022-09-09T06:42:02;18.77;;;16.97;;
787;SDS011;16074;42.708;23.312;2022-09-09T06:44:50;18.73;;;16.87;;
787;SDS011;16074;42.708;23.312;2022-09-09T06:47:32;15.47;;;14.17;;
787;SDS011;16074;42.708;23.312;2022-09-09T06:50:02;13.70;;;12.23;;
787;SDS011;16074;42.708;23.312;2022-09-09T06:52:33;12.73;;;11.63;;
787;SDS011;16074;42.708;23.312;2022-09-09T06:55:02;13.10;;;12.00;;
787;SDS011;16074;42.708;23.312;2022-09-09T06:57:34;13.10;;;11.90;;
787;SDS011;16074;42.708;23.312;2022-09-09T07:00:17;14.43;;;11.60;;
787;SDS011;16074;42.708;23.312;2022-09-09T07:02:45;13.03;;;11.93;;
787;SDS011;16074;42.708;23.312;2022-09-09T07:05:14;12.70;;;11.80;;
787;SDS011;16074;42.708;23.312;2022-09-09T07:07:44;11.33;;;10.53;;
787;SDS011;16074;42.708;23.312;2022-09-09T07:10:15;12.67;;;11.57;;
787;SDS011;16074;42.708;23.312;2022-09-09T07:12:45;12.07;;;11.17;;
787;SDS011;16074;42.708;23.312;2022-09-09T07:15:20;12.80;;;11.70;;
787;SDS011;16074;42.708;23.312;2022-09-09T07:17:49;12.40;;;11.50;;
787;SDS011;16074;42.708;23.312;2022-09-09T07:20:17;11.30;;;10.43;;
787;SDS011;16074;42.708;23.312;2022-09-09T07:22:46;16.03;;;13.20;;
787;SDS011;16074;42.708;23.312;2022-09-09T07:25:14;12.87;;;11.50;;
787;SDS011;16074;42.708;23.312;2022-09-09T07:27:46;12.67;;;11.37;;
787;SDS011;16074;42.708;23.312;2022-09-09T07:30:15;11.90;;;10.80;;
787;SDS011;16074;42.708;23.312;2022-09-09T07:32:51;11.67;;;10.43;;
787;SDS011;16074;42.708;23.312;2022-09-09T07:35:20;11.57;;;10.77;;
787;SDS011;16074;42.708;23.312;2022-09-09T07:37:48;12.50;;;11.60;;
787;SDS011;16074;42.708;23.312;2022-09-09T07:40:18;11.73;;;10.80;;
787;SDS011;16074;42.708;23.312;2022-09-09T07:42:50;12.03;;;11.23;;
787;SDS011;16074;42.708;23.312;2022-09-09T07:45:18;13.60;;;12.50;;
787;SDS011;16074;42.708;23.312;2022-09-09T07:47:46;13.00;;;11.90;;
787;SDS011;16074;42.708;23.312;2022-09-09T07:50:15;13.03;;;11.73;;
787;SDS011;16074;42.708;23.312;2022-09-09T07:52:43;15.20;;;12.00;;
787;SDS011;16074;42.708;23.312;2022-09-09T07:55:12;12.37;;;11.27;;
787;SDS011;16074;42.708;23.312;2022-09-09T07:57:40;11.57;;;10.83;;
787;SDS011;16074;42.708;23.312;2022-09-09T08:00:13;11.90;;;10.83;;
787;SDS011;16074;42.708;23.312;2022-09-09T08:02:47;10.37;;;9.50;;
787;SDS011;16074;42.708;23.312;2022-09-09T08:05:16;10.80;;;10.00;;
787;SDS011;16074;42.708;23.312;2022-09-09T08:07:44;11.23;;;10.33;;
787;SDS011;16074;42.708;23.312;2022-09-09T08:10:14;10.33;;;9.63;;
787;SDS011;16074;42.708;23.312;2022-09-09T08:12:44;11.57;;;10.57;;
787;SDS011;16074;42.708;23.312;2022-09-09T08:15:33;10.57;;;9.57;;
787;SDS011;16074;42.708;23.312;2022-09-09T08:18:03;12.00;;;10.83;;
787;SDS011;16074;42.708;23.312;2022-09-09T08:20:32;11.73;;;10.63;;
787;SDS011;16074;42.708;23.312;2022-09-09T08:23:03;11.60;;;10.60;;
787;SDS011;16074;42.708;23.312;2022-09-09T08:25:31;11.40;;;10.40;;
787;SDS011;16074;42.708;23.312;2022-09-09T08:28:01;12.27;;;11.37;;
787;SDS011;16074;42.708;23.312;2022-09-09T08:30:30;11.60;;;10.90;;
787;SDS011;16074;42.708;23.312;2022-09-09T08:33:00;12.03;;;10.37;;
787;SDS011;16074;42.708;23.312;2022-09-09T08:35:28;9.77;;;9.17;;
787;SDS011;16074;42.708;23.312;2022-09-09T08:37:59;11.67;;;10.63;;
787;SDS011;16074;42.708;23.312;2022-09-09T08:40:33;10.27;;;9.57;;
787;SDS011;16074;42.708;23.312;2022-09-09T08:43:07;10.97;;;10.33;;
787;SDS011;16074;42.708;23.312;2022-09-09T08:45:37;11.63;;;10.87;;
787;SDS011;16074;42.708;23.312;2022-09-09T08:48:21;12.90;;;10.97;;
787;SDS011;16074;42.708;23.312;2022-09-09T08:51:08;11.90;;;10.33;;
787;SDS011;16074;42.708;23.312;2022-09-09T08:53:39;13.47;;;10.83;;
787;SDS011;16074;42.708;23.312;2022-09-09T08:56:14;11.47;;;10.43;;
787;SDS011;16074;42.708;23.312;2022-09-09T08:58:48;10.80;;;10.10;;
787;SDS011;16074;42.708;23.312;2022-09-09T09:01:27;10.17;;;9.23;;
787;SDS011;16074;42.708;23.312;2022-09-09T09:04:14;10.80;;;9.70;;
787;SDS011;16074;42.708;23.312;2022-09-09T09:07:00;11.83;;;10.93;;
787;SDS011;16074;42.708;23.312;2022-09-09T09:09:38;11.57;;;10.53;;
787;SDS011;16074;42.708;23.312;2022-09-09T09:12:15;11.27;;;10.37;;
787;SDS011;16074;42.708;23.312;2022-09-09T09:14:46;11.57;;;10.77;;
787;SDS011;16074;42.708;23.312;2022-09-09T09:17:17;12.27;;;11.17;;
787;SDS011;16074;42.708;23.312;2022-09-09T09:19:49;11.40;;;10.37;;
787;SDS011;16074;42.708;23.312;2022-09-09T09:22:18;12.03;;;11.13;;
787;SDS011;16074;42.708;23.312;2022-09-09T09:24:53;12.10;;;11.10;;
787;SDS011;16074;42.708;23.312;2022-09-09T09:27:28;11.90;;;11.10;;
787;SDS011;16074;42.708;23.312;2022-09-09T09:30:04;13.27;;;12.17;;
787;SDS011;16074;42.708;23.312;2022-09-09T09:32:58;12.73;;;11.63;;
787;SDS011;16074;42.708;23.312;2022-09-09T09:35:31;13.60;;;12.40;;
787;SDS011;16074;42.708;23.312;2022-09-09T09:38:09;12.97;;;11.80;;
787;SDS011;16074;42.708;23.312;2022-09-09T09:41:04;12.70;;;11.70;;
787;SDS011;16074;42.708;23.312;2022-09-09T09:43:33;12.63;;;11.37;;
787;SDS011;16074;42.708;23.312;2022-09-09T09:46:17;13.60;;;12.20;;
787;SDS011;16074;42.708;23.312;2022-09-09T09:48:56;13.33;;;12.47;;
787;SDS011;16074;42.708;23.312;2022-09-09T09:51:27;14.93;;;12.77;;
787;SDS011;16074;42.708;23.312;2022-09-09T09:54:07;12.90;;;11.80;;
787;SDS011;16074;42.708;23.312;2022-09-09T09:56:46;13.47;;;12.13;;
787;SDS011;16074;42.708;23.312;2022-09-09T09:59:20;13.33;;;11.67;;
787;SDS011;16074;42.708;23.312;2022-09-09T10:02:17;13.13;;;12.20;;
787;SDS011;16074;42.708;23.312;2022-09-09T10:05:00;14.27;;;11.63;;
787;SDS011;16074;42.708;23.312;2022-09-09T10:07:33;13.70;;;12.57;;
787;SDS011;16074;42.708;23.312;2022-09-09T10:10:04;11.90;;;11.10;;
787;SDS011;16074;42.708;23.312;2022-09-09T10:12:37;12.70;;;11.60;;
787;SDS011;16074;42.708;23.312;2022-09-09T10:15:22;12.90;;;11.60;;
787;SDS011;16074;42.708;23.312;2022-09-09T10:18:16;12.40;;;11.40;;
787;SDS011;16074;42.708;23.312;2022-09-09T10:21:05;13.43;;;12.27;;
787;SDS011;16074;42.708;23.312;2022-09-09T10:23:48;12.90;;;12.00;;
787;SDS011;16074;42.708;23.312;2022-09-09T10:26:35;12.60;;;11.70;;
787;SDS011;16074;42.708;23.312;2022-09-09T10:32:11;12.87;;;11.87;;
787;SDS011;16074;42.708;23.312;2022-09-09T10:35:02;17.23;;;12.77;;
787;SDS011;16074;42.708;23.312;2022-09-09T10:37:41;12.70;;;11.47;;
787;SDS011;16074;42.708;23.312;2022-09-09T10:40:32;14.57;;;13.33;;
787;SDS011;16074;42.708;23.312;2022-09-09T10:43:03;20.07;;;15.30;;
787;SDS011;16074;42.708;23.312;2022-09-09T10:45:43;14.07;;;12.87;;
787;SDS011;16074;42.708;23.312;2022-09-09T10:48:23;14.43;;;13.23;;
787;SDS011;16074;42.708;23.312;2022-09-09T10:51:16;13.87;;;12.70;;
787;SDS011;16074;42.708;23.312;2022-09-09T10:53:52;13.50;;;12.40;;
787;SDS011;16074;42.708;23.312;2022-09-09T10:56:31;14.20;;;13.00;;
787;SDS011;16074;42.708;23.312;2022-09-09T10:59:02;13.67;;;12.47;;
787;SDS011;16074;42.708;23.312;2022-09-09T11:01:36;15.80;;;14.30;;
787;SDS011;16074;42.708;23.312;2022-09-09T11:04:10;14.60;;;13.50;;
787;SDS011;16074;42.708;23.312;2022-09-09T11:06:44;15.50;;;14.00;;
787;SDS011;16074;42.708;23.312;2022-09-09T11:09:21;14.10;;;12.90;;
787;SDS011;16074;42.708;23.312;2022-09-09T11:11:54;14.37;;;13.33;;
787;SDS011;16074;42.708;23.312;2022-09-09T11:14:25;14.10;;;12.90;;
787;SDS011;16074;42.708;23.312;2022-09-09T11:17:03;25.53;;;14.00;;
787;SDS011;16074;42.708;23.312;2022-09-09T11:19:38;14.63;;;13.33;;
787;SDS011;16074;42.708;23.312;2022-09-09T11:22:08;15.00;;;13.80;;
787;SDS011;16074;42.708;23.312;2022-09-09T11:24:47;14.07;;;13.03;;
787;SDS011;16074;42.708;23.312;2022-09-09T11:27:23;15.53;;;14.03;;
787;SDS011;16074;42.708;23.312;2022-09-09T11:33:26;12.97;;;11.87;;
787;SDS011;16074;42.708;23.312;2022-09-09T11:36:11;14.30;;;13.00;;
787;SDS011;16074;42.708;23.312;2022-09-09T11:38:53;14.53;;;13.20;;
787;SDS011;16074;42.708;23.312;2022-09-09T11:41:33;15.97;;;14.67;;
787;SDS011;16074;42.708;23.312;2022-09-09T11:44:10;14.27;;;13.17;;
787;SDS011;16074;42.708;23.312;2022-09-09T11:46:40;13.07;;;12.00;;
787;SDS011;16074;42.708;23.312;2022-09-09T11:49:23;14.57;;;13.43;;
787;SDS011;16074;42.708;23.312;2022-09-09T11:51:54;13.83;;;12.83;;
787;SDS011;16074;42.708;23.312;2022-09-09T11:54:27;15.10;;;14.00;;
787;SDS011;16074;42.708;23.312;2022-09-09T11:56:57;15.70;;;14.40;;
787;SDS011;16074;42.708;23.312;2022-09-09T11:59:28;14.73;;;13.73;;
787;SDS011;16074;42.708;23.312;2022-09-09T12:01:58;14.60;;;13.50;;
787;SDS011;16074;42.708;23.312;2022-09-09T12:04:30;15.23;;;14.03;;
787;SDS011;16074;42.708;23.312;2022-09-09T12:07:02;14.90;;;13.30;;
787;SDS011;16074;42.708;23.312;2022-09-09T12:09:42;14.57;;;13.40;;
787;SDS011;16074;42.708;23.312;2022-09-09T12:12:21;13.40;;;12.27;;
787;SDS011;16074;42.708;23.312;2022-09-09T12:14:56;14.77;;;13.77;;
787;SDS011;16074;42.708;23.312;2022-09-09T12:17:27;16.37;;;14.80;;
787;SDS011;16074;42.708;23.312;2022-09-09T12:20:00;15.27;;;13.87;;
787;SDS011;16074;42.708;23.312;2022-09-09T12:22:35;13.90;;;12.90;;
787;SDS011;16074;42.708;23.312;2022-09-09T12:25:14;15.67;;;14.23;;
787;SDS011;16074;42.708;23.312;2022-09-09T12:27:53;15.27;;;14.03;;
787;SDS011;16074;42.708;23.312;2022-09-09T12:30:34;15.00;;;13.60;;
787;SDS011;16074;42.708;23.312;2022-09-09T12:33:10;13.70;;;12.70;;
787;SDS011;16074;42.708;23.312;2022-09-09T12:35:40;13.07;;;12.17;;
787;SDS011;16074;42.708;23.312;2022-09-09T12:38:13;13.90;;;13.00;;
787;SDS011;16074;42.708;23.312;2022-09-09T12:40:53;14.40;;;13.40;;
787;SDS011;16074;42.708;23.312;2022-09-09T12:43:24;14.30;;;13.20;;
787;SDS011;16074;42.708;23.312;2022-09-09T12:45:55;15.27;;;13.93;;
787;SDS011;16074;42.708;23.312;2022-09-09T12:48:28;15.10;;;13.73;;
787;SDS011;16074;42.708;23.312;2022-09-09T12:51:01;14.97;;;13.50;;
787;SDS011;16074;42.708;23.312;2022-09-09T12:53:32;16.10;;;14.47;;
787;SDS011;16074;42.708;23.312;2022-09-09T12:56:03;16.30;;;14.80;;
787;SDS011;16074;42.708;23.312;2022-09-09T12:58:35;14.80;;;13.80;;
787;SDS011;16074;42.708;23.312;2022-09-09T13:01:17;16.07;;;14.87;;
787;SDS011;16074;42.708;23.312;2022-09-09T13:03:48;16.00;;;14.73;;
787;SDS011;16074;42.708;23.312;2022-09-09T13:06:19;16.63;;;15.23;;
787;SDS011;16074;42.708;23.312;2022-09-09T13:08:54;16.53;;;15.23;;
787;SDS011;16074;42.708;23.312;2022-09-09T13:11:26;14.57;;;13.53;;
787;SDS011;16074;42.708;23.312;2022-09-09T13:13:57;11.17;;;10.13;;
787;SDS011;16074;42.708;23.312;2022-09-09T13:16:28;11.90;;;11.00;;
787;SDS011;16074;42.708;23.312;2022-09-09T13:18:59;12.10;;;10.03;;
787;SDS011;16074;42.708;23.312;2022-09-09T13:21:32;9.80;;;8.90;;
787;SDS011;16074;42.708;23.312;2022-09-09T13:24:01;9.70;;;8.90;;
787;SDS011;16074;42.708;23.312;2022-09-09T13:26:30;12.73;;;9.83;;
787;SDS011;16074;42.708;23.312;2022-09-09T13:29:08;9.53;;;8.83;;
787;SDS011;16074;42.708;23.312;2022-09-09T13:31:46;9.90;;;8.93;;
787;SDS011;16074;42.708;23.312;2022-09-09T13:34:26;12.00;;;9.70;;
787;SDS011;16074;42.708;23.312;2022-09-09T13:36:57;10.63;;;9.57;;
787;SDS011;16074;42.708;23.312;2022-09-09T13:39:29;11.63;;;10.40;;
787;SDS011;16074;42.708;23.312;2022-09-09T13:41:57;11.80;;;10.73;;
787;SDS011;16074;42.708;23.312;2022-09-09T13:44:26;10.30;;;9.40;;
787;SDS011;16074;42.708;23.312;2022-09-09T13:47:02;10.77;;;9.87;;
787;SDS011;16074;42.708;23.312;2022-09-09T13:49:36;11.40;;;10.30;;
787;SDS011;16074;42.708;23.312;2022-09-09T13:52:05;9.30;;;8.40;;
787;SDS011;16074;42.708;23.312;2022-09-09T13:54:38;10.40;;;9.40;;
787;SDS011;16074;42.708;23.312;2022-09-09T13:57:13;10.80;;;9.77;;
787;SDS011;16074;42.708;23.312;2022-09-09T13:59:43;17.23;;;15.50;;
787;SDS011;16074;42.708;23.312;2022-09-09T14:02:32;16.00;;;14.60;;
787;SDS011;16074;42.708;23.312;2022-09-09T14:05:01;15.87;;;13.30;;
787;SDS011;16074;42.708;23.312;2022-09-09T14:07:29;12.43;;;11.23;;
787;SDS011;16074;42.708;23.312;2022-09-09T14:09:58;10.70;;;9.60;;
787;SDS011;16074;42.708;23.312;2022-09-09T14:12:27;18.67;;;10.20;;
787;SDS011;16074;42.708;23.312;2022-09-09T14:14:55;11.47;;;10.40;;
787;SDS011;16074;42.708;23.312;2022-09-09T14:17:23;12.63;;;9.23;;
787;SDS011;16074;42.708;23.312;2022-09-09T14:19:55;12.00;;;9.80;;
787;SDS011;16074;42.708;23.312;2022-09-09T14:22:23;9.13;;;8.23;;
787;SDS011;16074;42.708;23.312;2022-09-09T14:24:52;13.80;;;8.93;;
787;SDS011;16074;42.708;23.312;2022-09-09T14:27:20;13.50;;;9.80;;
787;SDS011;16074;42.708;23.312;2022-09-09T14:29:49;13.00;;;12.00;;
787;SDS011;16074;42.708;23.312;2022-09-09T14:32:17;13.23;;;11.80;;
787;SDS011;16074;42.708;23.312;2022-09-09T14:34:45;14.60;;;12.93;;
787;SDS011;16074;42.708;23.312;2022-09-09T14:37:17;15.20;;;13.80;;
787;SDS011;16074;42.708;23.312;2022-09-09T14:39:46;16.57;;;12.97;;
787;SDS011;16074;42.708;23.312;2022-09-09T14:42:17;15.23;;;13.83;;
787;SDS011;16074;42.708;23.312;2022-09-09T14:44:45;14.17;;;13.10;;
787;SDS011;16074;42.708;23.312;2022-09-09T14:47:14;14.23;;;13.03;;
787;SDS011;16074;42.708;23.312;2022-09-09T14:49:42;13.10;;;11.80;;
787;SDS011;16074;42.708;23.312;2022-09-09T14:52:12;14.60;;;12.60;;
787;SDS011;16074;42.708;23.312;2022-09-09T14:54:42;12.90;;;11.63;;
787;SDS011;16074;42.708;23.312;2022-09-09T14:57:10;13.23;;;12.13;;
787;SDS011;16074;42.708;23.312;2022-09-09T14:59:38;12.53;;;11.20;;
787;SDS011;16074;42.708;23.312;2022-09-09T15:02:07;16.53;;;13.40;;
787;SDS011;16074;42.708;23.312;2022-09-09T15:04:36;13.57;;;12.47;;
787;SDS011;16074;42.708;23.312;2022-09-09T15:07:04;12.80;;;11.60;;
787;SDS011;16074;42.708;23.312;2022-09-09T15:09:33;13.37;;;12.17;;
787;SDS011;16074;42.708;23.312;2022-09-09T15:12:02;12.07;;;10.93;;
787;SDS011;16074;42.708;23.312;2022-09-09T15:14:31;16.27;;;12.00;;
787;SDS011;16074;42.708;23.312;2022-09-09T15:17:00;13.03;;;11.53;;
787;SDS011;16074;42.708;23.312;2022-09-09T15:19:28;14.10;;;12.63;;